sensor_id;sensor_type;location;lat;lon;timestamp;P1;durP1;ratioP1;P2;durP2;ratioP2
16906;SDS011;8570;52.380;4.654;2023-04-06T00:02:28;34.17;;;20.17;;
16906;SDS011;8570;52.380;4.654;2023-04-06T00:07:31;32.23;;;20.77;;
16906;SDS011;8570;52.380;4.654;2023-04-06T00:12:34;32.50;;;20.90;;
16906;SDS011;8570;52.380;4.654;2023-04-06T00:17:36;34.70;;;21.70;;
16906;SDS011;8570;52.380;4.654;2023-04-06T00:22:39;31.23;;;20.33;;
16906;SDS011;8570;52.380;4.654;2023-04-06T00:27:41;37.03;;;21.83;;
16906;SDS011;8570;52.380;4.654;2023-04-06T00:32:43;31.13;;;20.07;;
16906;SDS011;8570;52.380;4.654;2023-04-06T00:37:47;33.57;;;19.77;;
16906;SDS011;8570;52.380;4.654;2023-04-06T00:42:49;30.77;;;18.53;;
16906;SDS011;8570;52.380;4.654;2023-04-06T00:47:51;24.30;;;17.00;;
16906;SDS011;8570;52.380;4.654;2023-04-06T00:52:54;24.47;;;16.83;;
16906;SDS011;8570;52.380;4.654;2023-04-06T00:57:57;24.27;;;15.87;;
16906;SDS011;8570;52.380;4.654;2023-04-06T01:03:00;22.63;;;14.47;;
16906;SDS011;8570;52.380;4.654;2023-04-06T01:08:03;22.43;;;14.50;;
16906;SDS011;8570;52.380;4.654;2023-04-06T01:13:05;19.63;;;14.20;;
16906;SDS011;8570;52.380;4.654;2023-04-06T01:18:08;20.07;;;12.90;;
16906;SDS011;8570;52.380;4.654;2023-04-06T01:23:12;17.80;;;12.60;;
16906;SDS011;8570;52.380;4.654;2023-04-06T01:28:14;15.50;;;12.20;;
16906;SDS011;8570;52.380;4.654;2023-04-06T01:33:16;16.57;;;11.73;;
16906;SDS011;8570;52.380;4.654;2023-04-06T01:38:19;15.63;;;11.27;;
16906;SDS011;8570;52.380;4.654;2023-04-06T01:43:21;17.43;;;12.37;;
16906;SDS011;8570;52.380;4.654;2023-04-06T01:48:23;17.80;;;11.47;;
16906;SDS011;8570;52.380;4.654;2023-04-06T01:53:28;21.17;;;10.90;;
16906;SDS011;8570;52.380;4.654;2023-04-06T01:58:30;17.83;;;11.73;;
16906;SDS011;8570;52.380;4.654;2023-04-06T02:03:32;14.63;;;11.63;;
16906;SDS011;8570;52.380;4.654;2023-04-06T02:08:35;15.10;;;11.63;;
16906;SDS011;8570;52.380;4.654;2023-04-06T02:13:37;14.30;;;10.37;;
16906;SDS011;8570;52.380;4.654;2023-04-06T02:18:39;15.83;;;10.90;;
16906;SDS011;8570;52.380;4.654;2023-04-06T02:23:43;17.77;;;10.63;;
16906;SDS011;8570;52.380;4.654;2023-04-06T02:28:45;16.40;;;11.00;;
16906;SDS011;8570;52.380;4.654;2023-04-06T02:33:47;15.27;;;11.10;;
16906;SDS011;8570;52.380;4.654;2023-04-06T02:38:50;15.17;;;10.57;;
16906;SDS011;8570;52.380;4.654;2023-04-06T02:43:52;15.27;;;10.67;;
16906;SDS011;8570;52.380;4.654;2023-04-06T02:48:54;14.77;;;10.33;;
16906;SDS011;8570;52.380;4.654;2023-04-06T02:53:58;16.47;;;10.77;;
16906;SDS011;8570;52.380;4.654;2023-04-06T02:59:00;15.57;;;11.00;;
16906;SDS011;8570;52.380;4.654;2023-04-06T03:04:02;15.80;;;10.20;;
16906;SDS011;8570;52.380;4.654;2023-04-06T03:09:05;13.23;;;9.83;;
16906;SDS011;8570;52.380;4.654;2023-04-06T03:14:07;13.70;;;10.03;;
16906;SDS011;8570;52.380;4.654;2023-04-06T03:19:09;15.53;;;10.23;;
16906;SDS011;8570;52.380;4.654;2023-04-06T03:24:13;16.03;;;10.60;;
16906;SDS011;8570;52.380;4.654;2023-04-06T03:29:15;16.13;;;10.17;;
16906;SDS011;8570;52.380;4.654;2023-04-06T03:34:17;14.47;;;10.50;;
16906;SDS011;8570;52.380;4.654;2023-04-06T03:39:20;15.97;;;11.17;;
16906;SDS011;8570;52.380;4.654;2023-04-06T03:44:22;14.97;;;10.43;;
16906;SDS011;8570;52.380;4.654;2023-04-06T03:49:24;15.80;;;11.10;;
16906;SDS011;8570;52.380;4.654;2023-04-06T03:54:27;15.40;;;11.37;;
16906;SDS011;8570;52.380;4.654;2023-04-06T03:59:29;17.80;;;10.53;;
16906;SDS011;8570;52.380;4.654;2023-04-06T04:04:31;17.17;;;11.77;;
16906;SDS011;8570;52.380;4.654;2023-04-06T04:09:34;17.77;;;11.87;;
16906;SDS011;8570;52.380;4.654;2023-04-06T04:14:38;17.97;;;11.20;;
16906;SDS011;8570;52.380;4.654;2023-04-06T04:19:40;15.63;;;11.47;;
16906;SDS011;8570;52.380;4.654;2023-04-06T04:24:43;14.87;;;11.30;;
16906;SDS011;8570;52.380;4.654;2023-04-06T04:29:45;17.23;;;11.70;;
16906;SDS011;8570;52.380;4.654;2023-04-06T04:34:47;16.17;;;11.23;;
16906;SDS011;8570;52.380;4.654;2023-04-06T04:39:50;18.70;;;11.93;;
16906;SDS011;8570;52.380;4.654;2023-04-06T04:44:52;18.80;;;11.53;;
16906;SDS011;8570;52.380;4.654;2023-04-06T04:49:54;18.77;;;12.23;;
16906;SDS011;8570;52.380;4.654;2023-04-06T04:54:57;15.10;;;11.27;;
16906;SDS011;8570;52.380;4.654;2023-04-06T04:59:59;18.33;;;12.10;;
16906;SDS011;8570;52.380;4.654;2023-04-06T05:05:01;19.23;;;12.57;;
16906;SDS011;8570;52.380;4.654;2023-04-06T05:10:06;18.40;;;12.77;;
16906;SDS011;8570;52.380;4.654;2023-04-06T05:15:09;18.33;;;12.50;;
16906;SDS011;8570;52.380;4.654;2023-04-06T05:20:11;18.93;;;13.33;;
16906;SDS011;8570;52.380;4.654;2023-04-06T05:25:15;18.60;;;13.40;;
16906;SDS011;8570;52.380;4.654;2023-04-06T05:30:17;24.20;;;13.73;;
16906;SDS011;8570;52.380;4.654;2023-04-06T05:35:19;19.87;;;14.17;;
16906;SDS011;8570;52.380;4.654;2023-04-06T05:40:22;20.53;;;13.63;;
16906;SDS011;8570;52.380;4.654;2023-04-06T05:45:24;21.00;;;14.17;;
16906;SDS011;8570;52.380;4.654;2023-04-06T05:50:26;21.63;;;14.23;;
16906;SDS011;8570;52.380;4.654;2023-04-06T05:55:30;24.73;;;14.77;;
16906;SDS011;8570;52.380;4.654;2023-04-06T06:00:32;23.37;;;15.27;;
16906;SDS011;8570;52.380;4.654;2023-04-06T06:05:34;21.67;;;15.63;;
16906;SDS011;8570;52.380;4.654;2023-04-06T06:10:39;22.30;;;15.00;;
16906;SDS011;8570;52.380;4.654;2023-04-06T06:15:42;22.80;;;15.20;;
16906;SDS011;8570;52.380;4.654;2023-04-06T06:20:44;27.60;;;17.13;;
16906;SDS011;8570;52.380;4.654;2023-04-06T06:25:48;25.93;;;16.00;;
16906;SDS011;8570;52.380;4.654;2023-04-06T06:30:50;25.67;;;17.43;;
16906;SDS011;8570;52.380;4.654;2023-04-06T06:35:52;24.70;;;15.90;;
16906;SDS011;8570;52.380;4.654;2023-04-06T06:40:55;25.07;;;15.90;;
16906;SDS011;8570;52.380;4.654;2023-04-06T06:45:57;24.33;;;16.83;;
16906;SDS011;8570;52.380;4.654;2023-04-06T06:50:59;23.23;;;16.87;;
16906;SDS011;8570;52.380;4.654;2023-04-06T06:56:03;27.57;;;17.47;;
16906;SDS011;8570;52.380;4.654;2023-04-06T07:01:05;26.33;;;19.17;;
16906;SDS011;8570;52.380;4.654;2023-04-06T07:06:07;27.23;;;18.53;;
16906;SDS011;8570;52.380;4.654;2023-04-06T07:11:10;26.63;;;18.37;;
16906;SDS011;8570;52.380;4.654;2023-04-06T07:16:12;27.87;;;19.67;;
16906;SDS011;8570;52.380;4.654;2023-04-06T07:21:14;28.40;;;18.13;;
16906;SDS011;8570;52.380;4.654;2023-04-06T07:26:17;26.83;;;18.87;;
16906;SDS011;8570;52.380;4.654;2023-04-06T07:31:19;27.47;;;18.73;;
16906;SDS011;8570;52.380;4.654;2023-04-06T07:36:21;31.77;;;19.73;;
16906;SDS011;8570;52.380;4.654;2023-04-06T07:41:24;30.73;;;19.53;;
16906;SDS011;8570;52.380;4.654;2023-04-06T07:46:26;27.13;;;19.70;;
16906;SDS011;8570;52.380;4.654;2023-04-06T07:51:28;25.63;;;18.40;;
16906;SDS011;8570;52.380;4.654;2023-04-06T07:56:32;27.10;;;19.63;;
16906;SDS011;8570;52.380;4.654;2023-04-06T08:01:34;29.77;;;20.10;;
16906;SDS011;8570;52.380;4.654;2023-04-06T08:06:36;29.70;;;21.40;;
16906;SDS011;8570;52.380;4.654;2023-04-06T08:11:39;36.23;;;21.33;;
16906;SDS011;8570;52.380;4.654;2023-04-06T08:16:41;30.70;;;21.47;;
16906;SDS011;8570;52.380;4.654;2023-04-06T08:21:43;31.60;;;22.03;;
16906;SDS011;8570;52.380;4.654;2023-04-06T08:26:47;29.80;;;21.27;;
16906;SDS011;8570;52.380;4.654;2023-04-06T08:31:49;27.80;;;20.57;;
16906;SDS011;8570;52.380;4.654;2023-04-06T08:36:51;33.27;;;22.43;;
16906;SDS011;8570;52.380;4.654;2023-04-06T08:41:54;30.73;;;20.83;;
16906;SDS011;8570;52.380;4.654;2023-04-06T08:46:59;29.47;;;20.47;;
16906;SDS011;8570;52.380;4.654;2023-04-06T08:52:02;30.70;;;21.20;;
16906;SDS011;8570;52.380;4.654;2023-04-06T08:57:07;28.40;;;19.97;;
16906;SDS011;8570;52.380;4.654;2023-04-06T09:02:11;31.67;;;20.27;;
16906;SDS011;8570;52.380;4.654;2023-04-06T09:07:17;31.63;;;21.07;;
16906;SDS011;8570;52.380;4.654;2023-04-06T09:12:23;29.83;;;20.40;;
16906;SDS011;8570;52.380;4.654;2023-04-06T09:17:27;32.17;;;20.70;;
16906;SDS011;8570;52.380;4.654;2023-04-06T09:22:35;29.63;;;19.90;;
16906;SDS011;8570;52.380;4.654;2023-04-06T09:27:39;29.40;;;20.27;;
16906;SDS011;8570;52.380;4.654;2023-04-06T09:32:47;28.20;;;20.60;;
16906;SDS011;8570;52.380;4.654;2023-04-06T09:37:50;25.40;;;19.33;;
16906;SDS011;8570;52.380;4.654;2023-04-06T09:42:54;23.03;;;17.47;;
16906;SDS011;8570;52.380;4.654;2023-04-06T09:47:58;24.23;;;15.40;;
16906;SDS011;8570;52.380;4.654;2023-04-06T09:53:01;20.67;;;14.40;;
16906;SDS011;8570;52.380;4.654;2023-04-06T09:58:06;20.30;;;14.00;;
16906;SDS011;8570;52.380;4.654;2023-04-06T10:03:12;18.93;;;12.53;;
16906;SDS011;8570;52.380;4.654;2023-04-06T10:08:30;17.00;;;10.47;;
16906;SDS011;8570;52.380;4.654;2023-04-06T10:13:36;15.33;;;9.23;;
16906;SDS011;8570;52.380;4.654;2023-04-06T10:18:38;13.77;;;9.07;;
16906;SDS011;8570;52.380;4.654;2023-04-06T10:23:46;17.67;;;9.10;;
16906;SDS011;8570;52.380;4.654;2023-04-06T10:28:52;13.93;;;8.47;;
16906;SDS011;8570;52.380;4.654;2023-04-06T10:33:55;14.20;;;8.70;;
16906;SDS011;8570;52.380;4.654;2023-04-06T10:38:58;12.93;;;8.83;;
16906;SDS011;8570;52.380;4.654;2023-04-06T10:44:03;10.80;;;8.10;;
16906;SDS011;8570;52.380;4.654;2023-04-06T10:49:11;10.43;;;7.30;;
16906;SDS011;8570;52.380;4.654;2023-04-06T10:54:14;9.63;;;7.50;;
16906;SDS011;8570;52.380;4.654;2023-04-06T10:59:22;12.17;;;7.73;;
16906;SDS011;8570;52.380;4.654;2023-04-06T11:04:25;10.30;;;7.37;;
16906;SDS011;8570;52.380;4.654;2023-04-06T11:09:27;10.20;;;7.90;;
16906;SDS011;8570;52.380;4.654;2023-04-06T11:14:32;12.30;;;8.30;;
16906;SDS011;8570;52.380;4.654;2023-04-06T11:19:34;10.90;;;8.27;;
16906;SDS011;8570;52.380;4.654;2023-04-06T11:24:36;12.43;;;8.43;;
16906;SDS011;8570;52.380;4.654;2023-04-06T11:29:40;11.17;;;8.40;;
16906;SDS011;8570;52.380;4.654;2023-04-06T11:34:42;10.30;;;8.07;;
16906;SDS011;8570;52.380;4.654;2023-04-06T11:39:47;12.27;;;8.47;;
16906;SDS011;8570;52.380;4.654;2023-04-06T11:44:53;12.70;;;9.37;;
16906;SDS011;8570;52.380;4.654;2023-04-06T11:49:55;9.47;;;7.57;;
16906;SDS011;8570;52.380;4.654;2023-04-06T11:55:12;9.17;;;7.90;;
16906;SDS011;8570;52.380;4.654;2023-04-06T12:00:20;11.07;;;8.10;;
16906;SDS011;8570;52.380;4.654;2023-04-06T12:05:23;9.73;;;8.20;;
16906;SDS011;8570;52.380;4.654;2023-04-06T12:10:25;10.43;;;8.77;;
16906;SDS011;8570;52.380;4.654;2023-04-06T12:15:28;10.17;;;8.50;;
16906;SDS011;8570;52.380;4.654;2023-04-06T12:20:31;10.70;;;8.03;;
16906;SDS011;8570;52.380;4.654;2023-04-06T12:25:33;13.13;;;9.17;;
16906;SDS011;8570;52.380;4.654;2023-04-06T12:30:37;11.13;;;8.57;;
16906;SDS011;8570;52.380;4.654;2023-04-06T12:35:40;11.80;;;8.97;;
16906;SDS011;8570;52.380;4.654;2023-04-06T12:40:42;11.97;;;8.67;;
16906;SDS011;8570;52.380;4.654;2023-04-06T12:45:46;12.63;;;8.70;;
16906;SDS011;8570;52.380;4.654;2023-04-06T12:50:53;9.50;;;7.93;;
16906;SDS011;8570;52.380;4.654;2023-04-06T12:55:56;10.43;;;8.20;;
16906;SDS011;8570;52.380;4.654;2023-04-06T13:00:59;10.17;;;8.27;;
16906;SDS011;8570;52.380;4.654;2023-04-06T13:06:03;9.40;;;8.43;;
16906;SDS011;8570;52.380;4.654;2023-04-06T13:11:05;9.63;;;8.00;;
16906;SDS011;8570;52.380;4.654;2023-04-06T13:16:10;10.80;;;8.97;;
16906;SDS011;8570;52.380;4.654;2023-04-06T13:21:13;9.23;;;7.90;;
16906;SDS011;8570;52.380;4.654;2023-04-06T13:26:16;12.73;;;8.20;;
16906;SDS011;8570;52.380;4.654;2023-04-06T13:31:19;10.40;;;8.37;;
16906;SDS011;8570;52.380;4.654;2023-04-06T13:36:21;11.97;;;8.97;;
16906;SDS011;8570;52.380;4.654;2023-04-06T13:41:24;9.87;;;8.53;;
16906;SDS011;8570;52.380;4.654;2023-04-06T13:46:27;9.50;;;7.87;;
16906;SDS011;8570;52.380;4.654;2023-04-06T13:51:30;10.77;;;9.03;;
16906;SDS011;8570;52.380;4.654;2023-04-06T13:56:32;9.60;;;8.37;;
16906;SDS011;8570;52.380;4.654;2023-04-06T14:01:35;9.67;;;8.67;;
16906;SDS011;8570;52.380;4.654;2023-04-06T14:06:38;11.00;;;8.77;;
16906;SDS011;8570;52.380;4.654;2023-04-06T14:11:39;11.00;;;8.00;;
16906;SDS011;8570;52.380;4.654;2023-04-06T14:16:43;9.47;;;8.33;;
16906;SDS011;8570;52.380;4.654;2023-04-06T14:21:45;10.30;;;8.70;;
16906;SDS011;8570;52.380;4.654;2023-04-06T14:26:47;9.53;;;8.40;;
16906;SDS011;8570;52.380;4.654;2023-04-06T14:31:50;9.77;;;8.60;;
16906;SDS011;8570;52.380;4.654;2023-04-06T14:36:59;10.07;;;7.80;;
16906;SDS011;8570;52.380;4.654;2023-04-06T14:42:01;7.93;;;7.13;;
16906;SDS011;8570;52.380;4.654;2023-04-06T14:47:04;9.43;;;8.30;;
16906;SDS011;8570;52.380;4.654;2023-04-06T14:52:06;9.30;;;8.40;;
16906;SDS011;8570;52.380;4.654;2023-04-06T14:57:08;9.80;;;8.10;;
16906;SDS011;8570;52.380;4.654;2023-04-06T15:02:11;9.13;;;7.63;;
16906;SDS011;8570;52.380;4.654;2023-04-06T15:07:13;8.97;;;8.00;;
16906;SDS011;8570;52.380;4.654;2023-04-06T15:12:16;8.63;;;7.30;;
16906;SDS011;8570;52.380;4.654;2023-04-06T15:17:19;9.90;;;8.90;;
16906;SDS011;8570;52.380;4.654;2023-04-06T15:22:21;9.70;;;8.70;;
16906;SDS011;8570;52.380;4.654;2023-04-06T15:27:23;9.50;;;8.10;;
16906;SDS011;8570;52.380;4.654;2023-04-06T15:32:27;8.03;;;7.23;;
16906;SDS011;8570;52.380;4.654;2023-04-06T15:37:28;8.63;;;7.10;;
16906;SDS011;8570;52.380;4.654;2023-04-06T15:42:30;9.50;;;7.30;;
16906;SDS011;8570;52.380;4.654;2023-04-06T15:47:34;8.43;;;7.33;;
16906;SDS011;8570;52.380;4.654;2023-04-06T15:52:36;8.77;;;7.37;;
16906;SDS011;8570;52.380;4.654;2023-04-06T15:57:41;7.47;;;6.63;;
16906;SDS011;8570;52.380;4.654;2023-04-06T16:02:44;9.10;;;7.50;;
16906;SDS011;8570;52.380;4.654;2023-04-06T16:07:46;7.33;;;6.50;;
16906;SDS011;8570;52.380;4.654;2023-04-06T16:12:48;7.50;;;6.80;;
16906;SDS011;8570;52.380;4.654;2023-04-06T16:17:51;8.20;;;7.40;;
16906;SDS011;8570;52.380;4.654;2023-04-06T16:22:53;7.17;;;6.43;;
16906;SDS011;8570;52.380;4.654;2023-04-06T16:27:55;8.13;;;7.33;;
16906;SDS011;8570;52.380;4.654;2023-04-06T16:32:58;8.37;;;6.83;;
16906;SDS011;8570;52.380;4.654;2023-04-06T16:38:00;8.43;;;7.33;;
16906;SDS011;8570;52.380;4.654;2023-04-06T16:43:02;7.77;;;6.50;;
16906;SDS011;8570;52.380;4.654;2023-04-06T16:48:05;9.07;;;7.33;;
16906;SDS011;8570;52.380;4.654;2023-04-06T16:53:07;8.07;;;7.27;;
16906;SDS011;8570;52.380;4.654;2023-04-06T16:58:09;8.03;;;7.23;;
16906;SDS011;8570;52.380;4.654;2023-04-06T17:03:13;8.77;;;7.77;;
16906;SDS011;8570;52.380;4.654;2023-04-06T17:08:14;10.17;;;9.10;;
16906;SDS011;8570;52.380;4.654;2023-04-06T17:13:16;9.00;;;8.20;;
16906;SDS011;8570;52.380;4.654;2023-04-06T17:18:20;9.47;;;8.53;;
16906;SDS011;8570;52.380;4.654;2023-04-06T17:23:21;9.27;;;8.13;;
16906;SDS011;8570;52.380;4.654;2023-04-06T17:28:24;10.20;;;9.20;;
16906;SDS011;8570;52.380;4.654;2023-04-06T17:33:27;10.50;;;9.40;;
16906;SDS011;8570;52.380;4.654;2023-04-06T17:38:31;11.13;;;9.60;;
16906;SDS011;8570;52.380;4.654;2023-04-06T17:43:33;11.20;;;10.10;;
16906;SDS011;8570;52.380;4.654;2023-04-06T17:48:36;11.63;;;10.53;;
16906;SDS011;8570;52.380;4.654;2023-04-06T17:53:38;12.30;;;11.10;;
16906;SDS011;8570;52.380;4.654;2023-04-06T17:58:40;14.00;;;11.87;;
16906;SDS011;8570;52.380;4.654;2023-04-06T18:03:43;14.50;;;13.10;;
16906;SDS011;8570;52.380;4.654;2023-04-06T18:08:45;15.30;;;13.90;;
16906;SDS011;8570;52.380;4.654;2023-04-06T18:13:47;15.47;;;13.97;;
16906;SDS011;8570;52.380;4.654;2023-04-06T18:18:50;15.13;;;13.73;;
16906;SDS011;8570;52.380;4.654;2023-04-06T18:23:52;16.60;;;14.90;;
16906;SDS011;8570;52.380;4.654;2023-04-06T18:28:54;16.57;;;14.77;;
16906;SDS011;8570;52.380;4.654;2023-04-06T18:33:57;17.70;;;15.80;;
16906;SDS011;8570;52.380;4.654;2023-04-06T18:39:00;18.47;;;16.50;;
16906;SDS011;8570;52.380;4.654;2023-04-06T18:44:02;21.97;;;18.97;;
16906;SDS011;8570;52.380;4.654;2023-04-06T18:49:05;27.67;;;23.40;;
16906;SDS011;8570;52.380;4.654;2023-04-06T18:54:07;26.50;;;20.90;;
16906;SDS011;8570;52.380;4.654;2023-04-06T18:59:10;21.03;;;17.23;;
16906;SDS011;8570;52.380;4.654;2023-04-06T19:04:14;18.43;;;14.07;;
16906;SDS011;8570;52.380;4.654;2023-04-06T19:09:16;24.47;;;10.73;;
16906;SDS011;8570;52.380;4.654;2023-04-06T19:14:18;19.60;;;10.27;;
16906;SDS011;8570;52.380;4.654;2023-04-06T19:19:21;17.13;;;8.17;;
16906;SDS011;8570;52.380;4.654;2023-04-06T19:24:23;14.07;;;7.50;;
16906;SDS011;8570;52.380;4.654;2023-04-06T19:29:25;18.83;;;7.17;;
16906;SDS011;8570;52.380;4.654;2023-04-06T19:34:28;10.20;;;5.60;;
16906;SDS011;8570;52.380;4.654;2023-04-06T19:39:30;11.80;;;5.50;;
16906;SDS011;8570;52.380;4.654;2023-04-06T19:44:32;20.23;;;7.40;;
16906;SDS011;8570;52.380;4.654;2023-04-06T19:49:36;14.37;;;4.50;;
16906;SDS011;8570;52.380;4.654;2023-04-06T19:54:39;14.13;;;4.07;;
16906;SDS011;8570;52.380;4.654;2023-04-06T19:59:41;10.40;;;4.07;;
16906;SDS011;8570;52.380;4.654;2023-04-06T20:04:45;13.33;;;4.17;;
16906;SDS011;8570;52.380;4.654;2023-04-06T20:09:46;9.90;;;4.27;;
16906;SDS011;8570;52.380;4.654;2023-04-06T20:14:48;10.40;;;3.90;;
16906;SDS011;8570;52.380;4.654;2023-04-06T20:19:52;13.07;;;4.30;;
16906;SDS011;8570;52.380;4.654;2023-04-06T20:24:57;16.13;;;4.50;;
16906;SDS011;8570;52.380;4.654;2023-04-06T20:29:59;14.83;;;3.60;;
16906;SDS011;8570;52.380;4.654;2023-04-06T20:35:03;8.90;;;3.00;;
16906;SDS011;8570;52.380;4.654;2023-04-06T20:40:05;12.23;;;3.17;;
16906;SDS011;8570;52.380;4.654;2023-04-06T20:45:08;18.30;;;4.20;;
16906;SDS011;8570;52.380;4.654;2023-04-06T20:50:14;13.90;;;4.03;;
16906;SDS011;8570;52.380;4.654;2023-04-06T20:55:17;17.77;;;4.13;;
16906;SDS011;8570;52.380;4.654;2023-04-06T21:00:19;20.60;;;4.23;;
16906;SDS011;8570;52.380;4.654;2023-04-06T21:05:22;12.33;;;4.40;;
16906;SDS011;8570;52.380;4.654;2023-04-06T21:10:24;9.90;;;4.60;;
16906;SDS011;8570;52.380;4.654;2023-04-06T21:15:26;14.10;;;4.53;;
16906;SDS011;8570;52.380;4.654;2023-04-06T21:20:32;21.77;;;5.57;;
16906;SDS011;8570;52.380;4.654;2023-04-06T21:25:35;15.17;;;5.07;;
16906;SDS011;8570;52.380;4.654;2023-04-06T21:30:37;10.87;;;4.20;;
16906;SDS011;8570;52.380;4.654;2023-04-06T21:35:43;18.10;;;4.80;;
16906;SDS011;8570;52.380;4.654;2023-04-06T21:40:52;14.17;;;4.87;;
16906;SDS011;8570;52.380;4.654;2023-04-06T21:45:54;11.40;;;4.50;;
16906;SDS011;8570;52.380;4.654;2023-04-06T21:50:58;16.77;;;4.80;;
16906;SDS011;8570;52.380;4.654;2023-04-06T21:56:00;17.20;;;5.00;;
16906;SDS011;8570;52.380;4.654;2023-04-06T22:01:02;11.30;;;4.17;;
16906;SDS011;8570;52.380;4.654;2023-04-06T22:06:13;14.47;;;3.93;;
16906;SDS011;8570;52.380;4.654;2023-04-06T22:11:15;11.07;;;3.80;;
16906;SDS011;8570;52.380;4.654;2023-04-06T22:16:17;13.43;;;3.60;;
16906;SDS011;8570;52.380;4.654;2023-04-06T22:21:20;9.13;;;3.80;;
16906;SDS011;8570;52.380;4.654;2023-04-06T22:26:22;9.87;;;3.30;;
16906;SDS011;8570;52.380;4.654;2023-04-06T22:31:27;6.50;;;2.40;;
16906;SDS011;8570;52.380;4.654;2023-04-06T22:36:30;7.50;;;2.60;;
16906;SDS011;8570;52.380;4.654;2023-04-06T22:41:32;10.27;;;3.57;;
16906;SDS011;8570;52.380;4.654;2023-04-06T22:46:34;6.30;;;3.40;;
16906;SDS011;8570;52.380;4.654;2023-04-06T22:51:37;12.70;;;3.63;;
16906;SDS011;8570;52.380;4.654;2023-04-06T22:56:40;15.30;;;4.70;;
16906;SDS011;8570;52.380;4.654;2023-04-06T23:01:42;15.57;;;4.50;;
16906;SDS011;8570;52.380;4.654;2023-04-06T23:06:46;13.20;;;4.03;;
16906;SDS011;8570;52.380;4.654;2023-04-06T23:11:48;17.00;;;4.60;;
16906;SDS011;8570;52.380;4.654;2023-04-06T23:16:49;16.70;;;5.00;;
16906;SDS011;8570;52.380;4.654;2023-04-06T23:21:53;19.33;;;4.60;;
16906;SDS011;8570;52.380;4.654;2023-04-06T23:26:55;16.60;;;4.20;;
16906;SDS011;8570;52.380;4.654;2023-04-06T23:31:57;19.93;;;4.10;;
16906;SDS011;8570;52.380;4.654;2023-04-06T23:37:01;21.80;;;3.43;;
16906;SDS011;8570;52.380;4.654;2023-04-06T23:42:03;10.23;;;3.77;;
16906;SDS011;8570;52.380;4.654;2023-04-06T23:47:05;17.13;;;3.80;;
16906;SDS011;8570;52.380;4.654;2023-04-06T23:52:08;15.93;;;4.37;;
16906;SDS011;8570;52.380;4.654;2023-04-06T23:57:10;15.50;;;4.03;;
